Terminal Aerodrome Forecast
Issued by NWS

Home | Current Version | Previous Version | Text Only | Print | Product List | Glossary On
Versions: 1 2 3 4 5 6 7 8 9 10 11 12 13 14 15 16 17
290
FTUS46 KPDT 150540
TAFPSC
TAF
KPSC 150540Z 1506/1606 VRB06KT P6SM OVC019
      TEMPO 1506/1510 5SM BR OVC012
     FM151200 16004KT 6SM BR BKN008 OVC012
     FM151900 19004KT 6SM -RA BR SCT008 OVC023
     FM152300 28012KT P6SM SCT030 BKN060=

USA.gov is the U.S. government's official web portal to all federal, state and local government web resources and services.